sensor_id;sensor_type;location;lat;lon;timestamp;pressure;altitude;pressure_sealevel;temperature;humidity
10940;BME280;5522;42.696;23.494;2023-12-29T00:01:11;53707.06;;;-139.68;100.00
10940;BME280;5522;42.696;23.494;2023-12-29T00:03:38;53723.13;;;-139.68;100.00
10940;BME280;5522;42.696;23.494;2023-12-29T00:06:05;53725.16;;;-139.68;100.00
10940;BME280;5522;42.696;23.494;2023-12-29T00:08:32;53686.97;;;-139.68;100.00
10940;BME280;5522;42.696;23.494;2023-12-29T00:10:59;53715.09;;;-139.68;100.00
10940;BME280;5522;42.696;23.494;2023-12-29T00:13:25;53690.97;;;-139.68;100.00
10940;BME280;5522;42.696;23.494;2023-12-29T00:15:56;53719.13;;;-139.68;100.00
10940;BME280;5522;42.696;23.494;2023-12-29T00:18:23;53717.13;;;-139.68;100.00
10940;BME280;5522;42.696;23.494;2023-12-29T00:20:50;53705.06;;;-139.68;100.00
10940;BME280;5522;42.696;23.494;2023-12-29T00:23:17;53735.19;;;-139.68;100.00
10940;BME280;5522;42.696;23.494;2023-12-29T00:25:43;53719.13;;;-139.68;100.00
10940;BME280;5522;42.696;23.494;2023-12-29T00:28:11;53753.28;;;-139.68;100.00
10940;BME280;5522;42.696;23.494;2023-12-29T00:30:38;53731.19;;;-139.68;100.00
10940;BME280;5522;42.696;23.494;2023-12-29T00:33:07;53731.19;;;-139.68;100.00
10940;BME280;5522;42.696;23.494;2023-12-29T00:35:36;53707.06;;;-139.68;100.00
10940;BME280;5522;42.696;23.494;2023-12-29T00:38:03;53723.13;;;-139.68;100.00
10940;BME280;5522;42.696;23.494;2023-12-29T00:40:30;53717.13;;;-139.68;100.00
10940;BME280;5522;42.696;23.494;2023-12-29T00:42:57;53699.03;;;-139.68;100.00
10940;BME280;5522;42.696;23.494;2023-12-29T00:45:24;53707.06;;;-139.68;100.00
10940;BME280;5522;42.696;23.494;2023-12-29T00:47:50;53699.03;;;-139.68;100.00
10940;BME280;5522;42.696;23.494;2023-12-29T00:50:18;53731.19;;;-139.68;100.00
10940;BME280;5522;42.696;23.494;2023-12-29T00:52:45;53721.13;;;-139.68;100.00
10940;BME280;5522;42.696;23.494;2023-12-29T00:55:13;53678.91;;;-139.68;100.00
10940;BME280;5522;42.696;23.494;2023-12-29T00:57:39;53684.94;;;-139.68;100.00
10940;BME280;5522;42.696;23.494;2023-12-29T01:00:10;53725.16;;;-139.68;100.00
10940;BME280;5522;42.696;23.494;2023-12-29T01:07:49;53686.97;;;-139.68;100.00
10940;BME280;5522;42.696;23.494;2023-12-29T01:10:16;53725.16;;;-139.68;100.00
10940;BME280;5522;42.696;23.494;2023-12-29T01:12:42;53664.84;;;-139.68;100.00
10940;BME280;5522;42.696;23.494;2023-12-29T01:15:10;53705.06;;;-139.68;100.00
10940;BME280;5522;42.696;23.494;2023-12-29T01:17:36;53723.13;;;-139.68;100.00
10940;BME280;5522;42.696;23.494;2023-12-29T01:22:38;53703.03;;;-139.68;100.00
10940;BME280;5522;42.696;23.494;2023-12-29T01:25:07;53693.00;;;-139.68;100.00
10940;BME280;5522;42.696;23.494;2023-12-29T01:27:34;53737.22;;;-139.68;100.00
10940;BME280;5522;42.696;23.494;2023-12-29T01:30:01;53695.00;;;-139.68;100.00
10940;BME280;5522;42.696;23.494;2023-12-29T01:32:27;53670.88;;;-139.68;100.00
10940;BME280;5522;42.696;23.494;2023-12-29T01:34:54;53674.91;;;-139.68;100.00
10940;BME280;5522;42.696;23.494;2023-12-29T01:37:21;53699.03;;;-139.68;100.00
10940;BME280;5522;42.696;23.494;2023-12-29T01:39:48;53695.00;;;-139.68;100.00
10940;BME280;5522;42.696;23.494;2023-12-29T01:42:16;53699.03;;;-139.68;100.00
10940;BME280;5522;42.696;23.494;2023-12-29T01:44:42;53648.75;;;-139.68;100.00
10940;BME280;5522;42.696;23.494;2023-12-29T01:47:13;53729.16;;;-139.68;100.00
10940;BME280;5522;42.696;23.494;2023-12-29T01:49:41;53690.97;;;-139.68;100.00
10940;BME280;5522;42.696;23.494;2023-12-29T01:52:10;53670.88;;;-139.68;100.00
10940;BME280;5522;42.696;23.494;2023-12-29T01:54:39;53680.94;;;-139.68;100.00
10940;BME280;5522;42.696;23.494;2023-12-29T01:57:08;53688.97;;;-139.68;100.00
10940;BME280;5522;42.696;23.494;2023-12-29T01:59:37;53729.16;;;-139.68;100.00
10940;BME280;5522;42.696;23.494;2023-12-29T02:02:04;53684.94;;;-139.68;100.00
10940;BME280;5522;42.696;23.494;2023-12-29T02:04:31;53699.03;;;-139.68;100.00
10940;BME280;5522;42.696;23.494;2023-12-29T02:06:58;53648.75;;;-139.68;100.00
10940;BME280;5522;42.696;23.494;2023-12-29T02:09:25;53646.75;;;-139.68;100.00
10940;BME280;5522;42.696;23.494;2023-12-29T02:11:52;53699.03;;;-139.68;100.00
10940;BME280;5522;42.696;23.494;2023-12-29T02:14:19;53664.84;;;-139.68;100.00
10940;BME280;5522;42.696;23.494;2023-12-29T02:16:54;53648.75;;;-139.68;100.00
10940;BME280;5522;42.696;23.494;2023-12-29T02:19:34;53688.97;;;-139.68;100.00
10940;BME280;5522;42.696;23.494;2023-12-29T02:22:03;53660.81;;;-139.68;100.00
10940;BME280;5522;42.696;23.494;2023-12-29T02:24:30;53642.72;;;-139.68;100.00
10940;BME280;5522;42.696;23.494;2023-12-29T02:27:05;53701.03;;;-139.68;100.00
10940;BME280;5522;42.696;23.494;2023-12-29T02:29:34;53711.09;;;-139.68;100.00
10940;BME280;5522;42.696;23.494;2023-12-29T02:32:03;53684.94;;;-139.68;100.00
10940;BME280;5522;42.696;23.494;2023-12-29T02:34:33;53680.94;;;-139.68;100.00
10940;BME280;5522;42.696;23.494;2023-12-29T02:37:01;53717.13;;;-139.68;100.00
10940;BME280;5522;42.696;23.494;2023-12-29T02:39:29;53705.06;;;-139.68;100.00
10940;BME280;5522;42.696;23.494;2023-12-29T02:41:56;53686.97;;;-139.68;100.00
10940;BME280;5522;42.696;23.494;2023-12-29T02:44:24;53682.94;;;-139.68;100.00
10940;BME280;5522;42.696;23.494;2023-12-29T02:46:51;53658.81;;;-139.68;100.00
10940;BME280;5522;42.696;23.494;2023-12-29T02:49:17;53688.97;;;-139.68;100.00
10940;BME280;5522;42.696;23.494;2023-12-29T02:51:44;53684.94;;;-139.68;100.00
10940;BME280;5522;42.696;23.494;2023-12-29T02:54:13;53642.72;;;-139.68;100.00
10940;BME280;5522;42.696;23.494;2023-12-29T02:56:40;53690.97;;;-139.68;100.00
10940;BME280;5522;42.696;23.494;2023-12-29T02:59:06;53660.81;;;-139.68;100.00
10940;BME280;5522;42.696;23.494;2023-12-29T03:01:35;53666.84;;;-139.68;100.00
10940;BME280;5522;42.696;23.494;2023-12-29T03:04:01;53699.03;;;-139.68;100.00
10940;BME280;5522;42.696;23.494;2023-12-29T03:06:28;53703.03;;;-139.68;100.00
10940;BME280;5522;42.696;23.494;2023-12-29T03:08:55;53695.00;;;-139.68;100.00
10940;BME280;5522;42.696;23.494;2023-12-29T03:11:22;53707.06;;;-139.68;100.00
10940;BME280;5522;42.696;23.494;2023-12-29T03:13:48;53719.13;;;-139.68;100.00
10940;BME280;5522;42.696;23.494;2023-12-29T03:16:15;53646.75;;;-139.68;100.00
10940;BME280;5522;42.696;23.494;2023-12-29T03:18:43;53690.97;;;-139.68;100.00
10940;BME280;5522;42.696;23.494;2023-12-29T03:21:10;53670.88;;;-139.68;100.00
10940;BME280;5522;42.696;23.494;2023-12-29T03:23:37;53678.91;;;-139.68;100.00
10940;BME280;5522;42.696;23.494;2023-12-29T03:26:04;53707.06;;;-139.68;100.00
10940;BME280;5522;42.696;23.494;2023-12-29T03:28:31;53688.97;;;-139.68;100.00
10940;BME280;5522;42.696;23.494;2023-12-29T03:30:57;53658.81;;;-139.68;100.00
10940;BME280;5522;42.696;23.494;2023-12-29T03:33:24;53711.09;;;-139.68;100.00
10940;BME280;5522;42.696;23.494;2023-12-29T03:35:52;53678.91;;;-139.68;100.00
10940;BME280;5522;42.696;23.494;2023-12-29T03:38:19;53622.63;;;-139.68;100.00
10940;BME280;5522;42.696;23.494;2023-12-29T03:40:46;53701.03;;;-139.68;100.00
10940;BME280;5522;42.696;23.494;2023-12-29T03:43:13;53654.78;;;-139.68;100.00
10940;BME280;5522;42.696;23.494;2023-12-29T03:45:40;53648.75;;;-139.68;100.00
10940;BME280;5522;42.696;23.494;2023-12-29T03:48:06;53650.78;;;-139.68;100.00
10940;BME280;5522;42.696;23.494;2023-12-29T03:50:34;53658.81;;;-139.68;100.00
10940;BME280;5522;42.696;23.494;2023-12-29T03:53:02;53664.84;;;-139.68;100.00
10940;BME280;5522;42.696;23.494;2023-12-29T03:55:29;53725.16;;;-139.68;100.00
10940;BME280;5522;42.696;23.494;2023-12-29T03:57:56;53654.78;;;-139.68;100.00
10940;BME280;5522;42.696;23.494;2023-12-29T04:00:24;53688.97;;;-139.68;100.00
10940;BME280;5522;42.696;23.494;2023-12-29T04:02:50;53682.94;;;-139.68;100.00
10940;BME280;5522;42.696;23.494;2023-12-29T04:05:17;53697.00;;;-139.68;100.00
10940;BME280;5522;42.696;23.494;2023-12-29T04:07:44;53666.84;;;-139.68;100.00
10940;BME280;5522;42.696;23.494;2023-12-29T04:10:12;53690.97;;;-139.68;100.00
10940;BME280;5522;42.696;23.494;2023-12-29T04:12:39;53664.84;;;-139.68;100.00
10940;BME280;5522;42.696;23.494;2023-12-29T04:15:07;53697.00;;;-139.68;100.00
10940;BME280;5522;42.696;23.494;2023-12-29T04:17:34;53656.81;;;-139.68;100.00
10940;BME280;5522;42.696;23.494;2023-12-29T04:20:00;53656.81;;;-139.68;100.00
10940;BME280;5522;42.696;23.494;2023-12-29T04:22:27;53654.78;;;-139.68;100.00
10940;BME280;5522;42.696;23.494;2023-12-29T04:24:54;53695.00;;;-139.68;100.00
10940;BME280;5522;42.696;23.494;2023-12-29T04:27:22;53658.81;;;-139.68;100.00
10940;BME280;5522;42.696;23.494;2023-12-29T04:29:49;53684.94;;;-139.68;100.00
10940;BME280;5522;42.696;23.494;2023-12-29T04:32:16;53684.94;;;-139.68;100.00
10940;BME280;5522;42.696;23.494;2023-12-29T04:34:42;53650.78;;;-139.68;100.00
10940;BME280;5522;42.696;23.494;2023-12-29T04:37:09;53626.66;;;-139.68;100.00
10940;BME280;5522;42.696;23.494;2023-12-29T04:39:37;53666.84;;;-139.68;100.00
10940;BME280;5522;42.696;23.494;2023-12-29T04:42:04;53684.94;;;-139.68;100.00
10940;BME280;5522;42.696;23.494;2023-12-29T04:44:32;53654.78;;;-139.68;100.00
10940;BME280;5522;42.696;23.494;2023-12-29T04:46:59;53674.91;;;-139.68;100.00
10940;BME280;5522;42.696;23.494;2023-12-29T04:49:25;53666.84;;;-139.68;100.00
10940;BME280;5522;42.696;23.494;2023-12-29T04:51:52;53654.78;;;-139.68;100.00
10940;BME280;5522;42.696;23.494;2023-12-29T04:54:19;53650.78;;;-139.68;100.00
10940;BME280;5522;42.696;23.494;2023-12-29T04:56:46;53680.94;;;-139.68;100.00
10940;BME280;5522;42.696;23.494;2023-12-29T04:59:12;53644.75;;;-139.68;100.00
10940;BME280;5522;42.696;23.494;2023-12-29T05:01:40;53650.78;;;-139.68;100.00
10940;BME280;5522;42.696;23.494;2023-12-29T05:04:07;53648.75;;;-139.68;100.00
10940;BME280;5522;42.696;23.494;2023-12-29T05:06:34;53644.75;;;-139.68;100.00
10940;BME280;5522;42.696;23.494;2023-12-29T05:09:01;53630.66;;;-139.68;100.00
10940;BME280;5522;42.696;23.494;2023-12-29T05:11:28;53703.03;;;-139.68;100.00
10940;BME280;5522;42.696;23.494;2023-12-29T05:13:55;53666.84;;;-139.68;100.00
10940;BME280;5522;42.696;23.494;2023-12-29T05:16:22;53666.84;;;-139.68;100.00
10940;BME280;5522;42.696;23.494;2023-12-29T05:18:50;53670.88;;;-139.68;100.00
10940;BME280;5522;42.696;23.494;2023-12-29T05:21:17;53680.94;;;-139.68;100.00
10940;BME280;5522;42.696;23.494;2023-12-29T05:23:44;53668.88;;;-139.68;100.00
10940;BME280;5522;42.696;23.494;2023-12-29T05:26:11;53701.03;;;-139.68;100.00
10940;BME280;5522;42.696;23.494;2023-12-29T05:28:38;53670.88;;;-139.68;100.00
10940;BME280;5522;42.696;23.494;2023-12-29T05:31:05;53678.91;;;-139.68;100.00
10940;BME280;5522;42.696;23.494;2023-12-29T05:33:32;53684.94;;;-139.68;100.00
10940;BME280;5522;42.696;23.494;2023-12-29T05:36:06;53674.91;;;-139.68;100.00
10940;BME280;5522;42.696;23.494;2023-12-29T05:38:33;53693.00;;;-139.68;100.00
10940;BME280;5522;42.696;23.494;2023-12-29T05:41:00;53678.91;;;-139.68;100.00
10940;BME280;5522;42.696;23.494;2023-12-29T05:43:28;53674.91;;;-139.68;100.00
10940;BME280;5522;42.696;23.494;2023-12-29T05:45:55;53680.94;;;-139.68;100.00
10940;BME280;5522;42.696;23.494;2023-12-29T05:48:22;53678.91;;;-139.68;100.00
10940;BME280;5522;42.696;23.494;2023-12-29T05:50:49;53713.09;;;-139.68;100.00
10940;BME280;5522;42.696;23.494;2023-12-29T05:53:17;53642.72;;;-139.68;100.00
10940;BME280;5522;42.696;23.494;2023-12-29T05:55:44;53662.84;;;-139.68;100.00
10940;BME280;5522;42.696;23.494;2023-12-29T05:58:11;53682.94;;;-139.68;100.00
10940;BME280;5522;42.696;23.494;2023-12-29T06:00:38;53650.78;;;-139.68;100.00
10940;BME280;5522;42.696;23.494;2023-12-29T06:03:05;53690.97;;;-139.68;100.00
10940;BME280;5522;42.696;23.494;2023-12-29T06:05:32;53684.94;;;-139.68;100.00
10940;BME280;5522;42.696;23.494;2023-12-29T06:07:59;53697.00;;;-139.68;100.00
10940;BME280;5522;42.696;23.494;2023-12-29T06:10:27;53602.53;;;-139.68;100.00
10940;BME280;5522;42.696;23.494;2023-12-29T06:12:54;53719.13;;;-139.68;100.00
10940;BME280;5522;42.696;23.494;2023-12-29T06:15:21;53670.88;;;-139.68;100.00
10940;BME280;5522;42.696;23.494;2023-12-29T06:17:47;53658.81;;;-139.68;100.00
10940;BME280;5522;42.696;23.494;2023-12-29T06:20:14;53682.94;;;-139.68;100.00
10940;BME280;5522;42.696;23.494;2023-12-29T06:22:41;53701.03;;;-139.68;100.00
10940;BME280;5522;42.696;23.494;2023-12-29T06:25:09;53703.03;;;-139.68;100.00
10940;BME280;5522;42.696;23.494;2023-12-29T06:27:37;53693.00;;;-139.68;100.00
10940;BME280;5522;42.696;23.494;2023-12-29T06:30:09;53668.88;;;-139.68;100.00
10940;BME280;5522;42.696;23.494;2023-12-29T06:32:37;53731.19;;;-139.68;100.00
10940;BME280;5522;42.696;23.494;2023-12-29T06:35:04;53674.91;;;-139.68;100.00
10940;BME280;5522;42.696;23.494;2023-12-29T06:37:31;53695.00;;;-139.68;100.00
10940;BME280;5522;42.696;23.494;2023-12-29T06:39:58;53666.84;;;-139.68;100.00
10940;BME280;5522;42.696;23.494;2023-12-29T06:42:25;53670.88;;;-139.68;100.00
10940;BME280;5522;42.696;23.494;2023-12-29T06:44:54;53709.06;;;-139.68;100.00
10940;BME280;5522;42.696;23.494;2023-12-29T06:47:20;53682.94;;;-139.68;100.00
10940;BME280;5522;42.696;23.494;2023-12-29T06:49:47;53676.91;;;-139.68;100.00
10940;BME280;5522;42.696;23.494;2023-12-29T06:52:15;53693.00;;;-139.68;100.00
10940;BME280;5522;42.696;23.494;2023-12-29T06:54:42;53711.09;;;-139.68;100.00
10940;BME280;5522;42.696;23.494;2023-12-29T06:57:08;53686.97;;;-139.68;100.00
10940;BME280;5522;42.696;23.494;2023-12-29T06:59:35;53727.16;;;-139.68;100.00
10940;BME280;5522;42.696;23.494;2023-12-29T07:02:04;53703.03;;;-139.68;100.00
10940;BME280;5522;42.696;23.494;2023-12-29T07:04:31;53705.06;;;-139.68;100.00
10940;BME280;5522;42.696;23.494;2023-12-29T07:07:00;53703.03;;;-139.68;100.00
10940;BME280;5522;42.696;23.494;2023-12-29T07:09:27;53680.94;;;-139.68;100.00
10940;BME280;5522;42.696;23.494;2023-12-29T07:11:54;53690.97;;;-139.68;100.00
10940;BME280;5522;42.696;23.494;2023-12-29T07:14:20;53703.03;;;-139.68;100.00
10940;BME280;5522;42.696;23.494;2023-12-29T07:16:47;53693.00;;;-139.68;100.00
10940;BME280;5522;42.696;23.494;2023-12-29T07:19:15;53739.22;;;-139.68;100.00
10940;BME280;5522;42.696;23.494;2023-12-29T07:21:42;53767.38;;;-139.68;100.00
10940;BME280;5522;42.696;23.494;2023-12-29T07:24:09;53757.31;;;-139.68;100.00
10940;BME280;5522;42.696;23.494;2023-12-29T07:26:36;53717.13;;;-139.68;100.00
10940;BME280;5522;42.696;23.494;2023-12-29T07:29:03;53797.53;;;-139.68;95.96
10940;BME280;5522;42.696;23.494;2023-12-29T07:31:31;53743.25;;;-139.68;97.84
10940;BME280;5522;42.696;23.494;2023-12-29T07:33:59;53777.41;;;-139.68;98.32
10940;BME280;5522;42.696;23.494;2023-12-29T07:36:27;53773.41;;;-139.68;96.91
10940;BME280;5522;42.696;23.494;2023-12-29T07:38:54;53751.28;;;-139.68;98.66
10940;BME280;5522;42.696;23.494;2023-12-29T07:41:21;53739.22;;;-139.68;100.00
10940;BME280;5522;42.696;23.494;2023-12-29T07:43:48;53751.28;;;-139.68;100.00
10940;BME280;5522;42.696;23.494;2023-12-29T07:46:23;53753.28;;;-139.68;100.00
10940;BME280;5522;42.696;23.494;2023-12-29T07:48:50;53751.28;;;-139.68;100.00
10940;BME280;5522;42.696;23.494;2023-12-29T07:51:18;53759.31;;;-139.68;100.00
10940;BME280;5522;42.696;23.494;2023-12-29T07:53:46;53759.31;;;-139.68;100.00
10940;BME280;5522;42.696;23.494;2023-12-29T07:56:14;53743.25;;;-139.68;100.00
10940;BME280;5522;42.696;23.494;2023-12-29T07:58:41;53753.28;;;-139.68;99.94
10940;BME280;5522;42.696;23.494;2023-12-29T08:01:07;53743.25;;;-139.68;99.20
10940;BME280;5522;42.696;23.494;2023-12-29T08:03:35;53707.06;;;-139.68;98.43
10940;BME280;5522;42.696;23.494;2023-12-29T08:06:02;53729.16;;;-139.68;100.00
10940;BME280;5522;42.696;23.494;2023-12-29T08:08:29;53763.34;;;-139.68;100.00
10940;BME280;5522;42.696;23.494;2023-12-29T08:10:58;53749.28;;;-139.68;100.00
10940;BME280;5522;42.696;23.494;2023-12-29T08:13:24;53743.25;;;-139.68;99.97
10940;BME280;5522;42.696;23.494;2023-12-29T08:15:51;53759.31;;;-139.68;98.28
10940;BME280;5522;42.696;23.494;2023-12-29T08:18:18;53767.38;;;-139.68;96.58
10940;BME280;5522;42.696;23.494;2023-12-29T08:20:45;53733.19;;;-139.68;97.59
10940;BME280;5522;42.696;23.494;2023-12-29T08:23:11;53815.63;;;-139.68;97.85
10940;BME280;5522;42.696;23.494;2023-12-29T08:25:38;53757.31;;;-139.68;97.33
10940;BME280;5522;42.696;23.494;2023-12-29T08:28:06;53739.22;;;-139.68;95.60
10940;BME280;5522;42.696;23.494;2023-12-29T08:30:34;53737.22;;;-139.68;96.58
10940;BME280;5522;42.696;23.494;2023-12-29T08:33:02;53725.16;;;-139.68;97.65
10940;BME280;5522;42.696;23.494;2023-12-29T08:35:29;53739.22;;;-139.68;97.26
10940;BME280;5522;42.696;23.494;2023-12-29T08:37:56;53719.13;;;-139.68;99.67
10940;BME280;5522;42.696;23.494;2023-12-29T08:40:23;53747.25;;;-139.68;100.00
10940;BME280;5522;42.696;23.494;2023-12-29T08:42:49;53809.59;;;-139.68;100.00
10940;BME280;5522;42.696;23.494;2023-12-29T08:45:18;53771.38;;;-139.68;100.00
10940;BME280;5522;42.696;23.494;2023-12-29T08:47:44;53765.34;;;-139.68;100.00
10940;BME280;5522;42.696;23.494;2023-12-29T08:50:11;53793.50;;;-139.68;100.00
10940;BME280;5522;42.696;23.494;2023-12-29T08:52:38;53781.44;;;-139.68;100.00
10940;BME280;5522;42.696;23.494;2023-12-29T08:55:05;53719.13;;;-139.68;100.00
10940;BME280;5522;42.696;23.494;2023-12-29T08:57:33;53737.22;;;-139.68;100.00
10940;BME280;5522;42.696;23.494;2023-12-29T09:00:00;53751.28;;;-139.68;100.00
10940;BME280;5522;42.696;23.494;2023-12-29T09:02:28;53761.34;;;-139.68;98.78
10940;BME280;5522;42.696;23.494;2023-12-29T09:04:55;53757.31;;;-139.68;100.00
10940;BME280;5522;42.696;23.494;2023-12-29T09:07:22;53715.09;;;-139.68;100.00
10940;BME280;5522;42.696;23.494;2023-12-29T09:09:49;53767.38;;;-139.68;100.00
10940;BME280;5522;42.696;23.494;2023-12-29T09:12:16;53777.41;;;-139.68;100.00
10940;BME280;5522;42.696;23.494;2023-12-29T09:14:43;53761.34;;;-139.68;100.00
10940;BME280;5522;42.696;23.494;2023-12-29T09:17:10;53791.50;;;-139.68;100.00
10940;BME280;5522;42.696;23.494;2023-12-29T09:19:38;53755.31;;;-139.68;100.00
10940;BME280;5522;42.696;23.494;2023-12-29T09:22:05;53745.25;;;-139.68;100.00
10940;BME280;5522;42.696;23.494;2023-12-29T09:24:32;53751.28;;;-139.68;100.00
10940;BME280;5522;42.696;23.494;2023-12-29T09:26:59;53787.47;;;-139.68;100.00
10940;BME280;5522;42.696;23.494;2023-12-29T09:29:26;53761.34;;;-139.68;98.94
10940;BME280;5522;42.696;23.494;2023-12-29T09:31:55;53747.25;;;-139.68;96.22
10940;BME280;5522;42.696;23.494;2023-12-29T09:34:22;53781.44;;;-139.68;93.11
10940;BME280;5522;42.696;23.494;2023-12-29T09:36:50;53775.41;;;-139.68;87.10
10940;BME280;5522;42.696;23.494;2023-12-29T09:39:17;53787.47;;;-139.68;78.21
10940;BME280;5522;42.696;23.494;2023-12-29T09:41:46;53783.44;;;-139.68;71.90
10940;BME280;5522;42.696;23.494;2023-12-29T09:44:14;53783.44;;;-139.68;57.26
10940;BME280;5522;42.696;23.494;2023-12-29T09:46:41;53841.75;;;-139.68;54.61
10940;BME280;5522;42.696;23.494;2023-12-29T09:49:09;53815.63;;;-139.68;51.93
10940;BME280;5522;42.696;23.494;2023-12-29T09:51:38;53825.66;;;-139.68;49.83
10940;BME280;5522;42.696;23.494;2023-12-29T09:54:08;53855.81;;;-139.68;47.36
10940;BME280;5522;42.696;23.494;2023-12-29T09:56:35;53879.94;;;-139.68;45.89
10940;BME280;5522;42.696;23.494;2023-12-29T09:59:03;53857.84;;;-139.68;46.89
10940;BME280;5522;42.696;23.494;2023-12-29T10:01:31;53861.84;;;-139.68;44.76
10940;BME280;5522;42.696;23.494;2023-12-29T10:03:58;53875.94;;;-139.68;42.84
10940;BME280;5522;42.696;23.494;2023-12-29T10:06:26;53879.94;;;-139.68;40.93
10940;BME280;5522;42.696;23.494;2023-12-29T10:08:53;53871.91;;;-139.68;41.10
10940;BME280;5522;42.696;23.494;2023-12-29T10:11:24;53843.75;;;-139.68;43.20
10940;BME280;5522;42.696;23.494;2023-12-29T10:13:54;53920.16;;;-139.68;41.40
10940;BME280;5522;42.696;23.494;2023-12-29T10:16:28;53890.00;;;-139.68;39.24
10940;BME280;5522;42.696;23.494;2023-12-29T10:19:00;53928.19;;;-139.68;37.15
10940;BME280;5522;42.696;23.494;2023-12-29T10:21:35;53892.00;;;-139.68;36.30
10940;BME280;5522;42.696;23.494;2023-12-29T10:24:08;53932.22;;;-139.68;35.61
10940;BME280;5522;42.696;23.494;2023-12-29T10:26:39;53892.00;;;-139.68;35.66
10940;BME280;5522;42.696;23.494;2023-12-29T10:29:06;53936.22;;;-139.68;35.29
10940;BME280;5522;42.696;23.494;2023-12-29T10:31:34;53908.09;;;-139.68;34.55
10940;BME280;5522;42.696;23.494;2023-12-29T10:34:19;53879.94;;;-139.68;34.14
10940;BME280;5522;42.696;23.494;2023-12-29T10:36:47;53936.22;;;-139.68;33.83
10940;BME280;5522;42.696;23.494;2023-12-29T10:39:15;53916.13;;;-139.68;33.65
10940;BME280;5522;42.696;23.494;2023-12-29T10:41:43;53934.22;;;-139.68;33.52
10940;BME280;5522;42.696;23.494;2023-12-29T10:44:10;53908.09;;;-139.68;34.28
10940;BME280;5522;42.696;23.494;2023-12-29T10:46:39;53936.22;;;-139.68;34.70
10940;BME280;5522;42.696;23.494;2023-12-29T10:49:07;53936.22;;;-139.68;35.12
10940;BME280;5522;42.696;23.494;2023-12-29T10:51:34;53914.13;;;-139.68;34.44
10940;BME280;5522;42.696;23.494;2023-12-29T10:54:01;53930.22;;;-139.68;34.96
10940;BME280;5522;42.696;23.494;2023-12-29T10:56:28;53964.38;;;-139.68;34.42
10940;BME280;5522;42.696;23.494;2023-12-29T10:59:01;53920.16;;;-139.68;34.42
10940;BME280;5522;42.696;23.494;2023-12-29T11:01:29;53936.22;;;-139.68;34.82
10940;BME280;5522;42.696;23.494;2023-12-29T11:04:00;53946.28;;;-139.68;33.54
10940;BME280;5522;42.696;23.494;2023-12-29T11:06:29;53908.09;;;-139.68;33.68
10940;BME280;5522;42.696;23.494;2023-12-29T11:08:56;53892.00;;;-139.68;33.58
10940;BME280;5522;42.696;23.494;2023-12-29T11:11:24;53960.38;;;-139.68;34.15
10940;BME280;5522;42.696;23.494;2023-12-29T11:13:53;53930.22;;;-139.68;34.04
10940;BME280;5522;42.696;23.494;2023-12-29T11:16:23;53877.94;;;-139.68;34.34
10940;BME280;5522;42.696;23.494;2023-12-29T11:18:51;53936.22;;;-139.68;34.33
10940;BME280;5522;42.696;23.494;2023-12-29T11:21:22;53908.09;;;-139.68;34.95
10940;BME280;5522;42.696;23.494;2023-12-29T11:23:52;53936.22;;;-139.68;34.69
10940;BME280;5522;42.696;23.494;2023-12-29T11:26:21;53914.13;;;-139.68;34.76
10940;BME280;5522;42.696;23.494;2023-12-29T11:28:49;53916.13;;;-139.68;34.60
10940;BME280;5522;42.696;23.494;2023-12-29T11:31:17;53920.16;;;-139.68;34.41
10940;BME280;5522;42.696;23.494;2023-12-29T11:33:52;53920.16;;;-139.68;34.94
10940;BME280;5522;42.696;23.494;2023-12-29T11:36:25;53968.41;;;-139.68;33.80
10940;BME280;5522;42.696;23.494;2023-12-29T11:38:58;53926.19;;;-139.68;33.97
10940;BME280;5522;42.696;23.494;2023-12-29T11:41:33;53932.22;;;-139.68;34.27
10940;BME280;5522;42.696;23.494;2023-12-29T11:44:02;53944.28;;;-139.68;34.36
10940;BME280;5522;42.696;23.494;2023-12-29T11:46:36;53898.03;;;-139.68;34.37
10940;BME280;5522;42.696;23.494;2023-12-29T11:49:05;53946.28;;;-139.68;35.73
10940;BME280;5522;42.696;23.494;2023-12-29T11:51:33;53904.06;;;-139.68;37.69
10940;BME280;5522;42.696;23.494;2023-12-29T11:54:01;53900.06;;;-139.68;39.93
10940;BME280;5522;42.696;23.494;2023-12-29T11:56:34;53920.16;;;-139.68;43.03
10940;BME280;5522;42.696;23.494;2023-12-29T11:59:18;53960.38;;;-139.68;44.69
10940;BME280;5522;42.696;23.494;2023-12-29T12:01:47;53881.97;;;-139.68;48.55
10940;BME280;5522;42.696;23.494;2023-12-29T12:04:39;53877.94;;;-139.68;58.05
10940;BME280;5522;42.696;23.494;2023-12-29T12:07:12;53910.09;;;-139.68;67.97
10940;BME280;5522;42.696;23.494;2023-12-29T12:09:40;53926.19;;;-139.68;71.75
10940;BME280;5522;42.696;23.494;2023-12-29T12:12:06;53946.28;;;-139.68;75.14
10940;BME280;5522;42.696;23.494;2023-12-29T12:14:47;53890.00;;;-139.68;79.25
10940;BME280;5522;42.696;23.494;2023-12-29T12:17:28;53906.06;;;-139.68;80.01
10940;BME280;5522;42.696;23.494;2023-12-29T12:19:59;53875.94;;;-139.68;80.56
10940;BME280;5522;42.696;23.494;2023-12-29T12:22:30;53859.84;;;-139.68;82.95
10940;BME280;5522;42.696;23.494;2023-12-29T12:24:57;53892.00;;;-139.68;83.99
10940;BME280;5522;42.696;23.494;2023-12-29T12:27:25;53871.91;;;-139.68;83.34
10940;BME280;5522;42.696;23.494;2023-12-29T12:29:55;53841.75;;;-139.68;83.55
10940;BME280;5522;42.696;23.494;2023-12-29T12:32:24;53892.00;;;-139.68;84.82
10940;BME280;5522;42.696;23.494;2023-12-29T12:34:52;53894.03;;;-139.68;85.85
10940;BME280;5522;42.696;23.494;2023-12-29T12:37:21;53890.00;;;-139.68;87.35
10940;BME280;5522;42.696;23.494;2023-12-29T12:39:48;53908.09;;;-139.68;87.41
10940;BME280;5522;42.696;23.494;2023-12-29T12:42:15;53871.91;;;-139.68;88.66
10940;BME280;5522;42.696;23.494;2023-12-29T12:44:48;53898.03;;;-139.68;88.35